Terminal Aerodrome Forecast
Issued by NWS

Home | Current Version | Previous Version | Text Only | Print | Product List | Glossary On
Versions: 1 2 3 4 5 6 7 8 9 10 11 12
000
FTUS45 KRIW 280531
TAFLND
TAF
KLND 280531Z 2806/2906 VRB05KT P6SM SCT100
     FM282100 27009KT P6SM SCT090
     FM290200 24006KT P6SM FEW090=

USA.gov is the U.S. government's official web portal to all federal, state and local government web resources and services.